sensor_id;sensor_type;location;lat;lon;timestamp;temperature;humidity
25582;DHT22;13462;50.764;4.332;2023-01-13T00:00:55;9.80;99.90
25582;DHT22;13462;50.764;4.332;2023-01-13T00:03:21;9.90;99.90
25582;DHT22;13462;50.764;4.332;2023-01-13T00:05:46;9.90;99.90
25582;DHT22;13462;50.764;4.332;2023-01-13T00:08:11;9.90;99.90
25582;DHT22;13462;50.764;4.332;2023-01-13T00:10:37;9.90;99.90
25582;DHT22;13462;50.764;4.332;2023-01-13T00:13:03;9.90;99.90
25582;DHT22;13462;50.764;4.332;2023-01-13T00:15:28;9.90;99.90
25582;DHT22;13462;50.764;4.332;2023-01-13T00:17:54;9.80;99.90
25582;DHT22;13462;50.764;4.332;2023-01-13T00:20:19;9.80;99.90
25582;DHT22;13462;50.764;4.332;2023-01-13T00:22:45;9.80;99.90
25582;DHT22;13462;50.764;4.332;2023-01-13T00:25:11;9.70;99.90
25582;DHT22;13462;50.764;4.332;2023-01-13T00:27:36;9.70;99.90
25582;DHT22;13462;50.764;4.332;2023-01-13T00:30:02;9.70;99.90
25582;DHT22;13462;50.764;4.332;2023-01-13T00:32:28;9.70;99.90
25582;DHT22;13462;50.764;4.332;2023-01-13T00:34:53;9.70;99.90
25582;DHT22;13462;50.764;4.332;2023-01-13T00:37:19;9.70;99.90
25582;DHT22;13462;50.764;4.332;2023-01-13T00:39:45;9.70;99.90
25582;DHT22;13462;50.764;4.332;2023-01-13T00:42:10;9.70;99.90
25582;DHT22;13462;50.764;4.332;2023-01-13T00:44:54;9.70;99.90
25582;DHT22;13462;50.764;4.332;2023-01-13T00:47:20;9.70;99.90
25582;DHT22;13462;50.764;4.332;2023-01-13T00:49:46;9.60;99.90
25582;DHT22;13462;50.764;4.332;2023-01-13T00:52:11;9.50;99.90
25582;DHT22;13462;50.764;4.332;2023-01-13T00:54:37;9.50;99.90
25582;DHT22;13462;50.764;4.332;2023-01-13T00:57:03;9.40;99.90
25582;DHT22;13462;50.764;4.332;2023-01-13T00:59:28;9.40;99.90
25582;DHT22;13462;50.764;4.332;2023-01-13T01:01:54;9.30;99.90
25582;DHT22;13462;50.764;4.332;2023-01-13T01:04:20;9.30;99.90
25582;DHT22;13462;50.764;4.332;2023-01-13T01:06:45;9.30;99.90
25582;DHT22;13462;50.764;4.332;2023-01-13T01:09:14;9.30;99.90
25582;DHT22;13462;50.764;4.332;2023-01-13T01:11:40;9.20;99.90
25582;DHT22;13462;50.764;4.332;2023-01-13T01:14:06;9.10;99.90
25582;DHT22;13462;50.764;4.332;2023-01-13T01:16:32;9.20;99.90
25582;DHT22;13462;50.764;4.332;2023-01-13T01:18:57;9.10;99.90
25582;DHT22;13462;50.764;4.332;2023-01-13T01:21:23;9.10;99.90
25582;DHT22;13462;50.764;4.332;2023-01-13T01:23:49;9.10;99.90
25582;DHT22;13462;50.764;4.332;2023-01-13T01:26:16;9.10;99.90
25582;DHT22;13462;50.764;4.332;2023-01-13T01:28:41;9.00;99.90
25582;DHT22;13462;50.764;4.332;2023-01-13T01:31:16;9.00;99.90
25582;DHT22;13462;50.764;4.332;2023-01-13T01:33:42;8.90;99.90
25582;DHT22;13462;50.764;4.332;2023-01-13T01:36:09;8.90;99.90
25582;DHT22;13462;50.764;4.332;2023-01-13T01:38:35;8.90;99.90
25582;DHT22;13462;50.764;4.332;2023-01-13T01:41:01;8.80;99.90
25582;DHT22;13462;50.764;4.332;2023-01-13T01:46:33;8.70;99.90
25582;DHT22;13462;50.764;4.332;2023-01-13T01:49:22;8.80;99.90
25582;DHT22;13462;50.764;4.332;2023-01-13T01:52:05;8.80;99.90
25582;DHT22;13462;50.764;4.332;2023-01-13T01:57:01;8.70;99.90
25582;DHT22;13462;50.764;4.332;2023-01-13T01:59:26;8.70;99.90
25582;DHT22;13462;50.764;4.332;2023-01-13T02:01:54;8.60;99.90
25582;DHT22;13462;50.764;4.332;2023-01-13T02:04:22;8.60;99.90
25582;DHT22;13462;50.764;4.332;2023-01-13T02:06:48;8.60;99.90
25582;DHT22;13462;50.764;4.332;2023-01-13T02:09:14;8.60;99.90
25582;DHT22;13462;50.764;4.332;2023-01-13T02:11:40;8.60;99.90
25582;DHT22;13462;50.764;4.332;2023-01-13T02:14:25;8.50;99.90
25582;DHT22;13462;50.764;4.332;2023-01-13T02:17:08;8.60;99.90
25582;DHT22;13462;50.764;4.332;2023-01-13T02:19:41;8.60;99.90
25582;DHT22;13462;50.764;4.332;2023-01-13T02:24:44;8.60;99.90
25582;DHT22;13462;50.764;4.332;2023-01-13T02:27:26;8.60;99.90
25582;DHT22;13462;50.764;4.332;2023-01-13T02:36:10;8.60;99.90
25582;DHT22;13462;50.764;4.332;2023-01-13T02:38:12;8.60;99.90
25582;DHT22;13462;50.764;4.332;2023-01-13T02:40:47;8.60;99.90
25582;DHT22;13462;50.764;4.332;2023-01-13T02:43:14;8.60;99.90
25582;DHT22;13462;50.764;4.332;2023-01-13T02:46:04;8.70;99.90
25582;DHT22;13462;50.764;4.332;2023-01-13T02:48:32;8.70;99.90
25582;DHT22;13462;50.764;4.332;2023-01-13T02:50:59;8.70;99.90
25582;DHT22;13462;50.764;4.332;2023-01-13T02:56:24;8.80;99.90
25582;DHT22;13462;50.764;4.332;2023-01-13T02:58:50;8.90;99.90
25582;DHT22;13462;50.764;4.332;2023-01-13T03:01:18;8.90;99.90
25582;DHT22;13462;50.764;4.332;2023-01-13T03:03:43;8.90;99.90
25582;DHT22;13462;50.764;4.332;2023-01-13T03:11:07;8.90;99.90
25582;DHT22;13462;50.764;4.332;2023-01-13T03:16:30;9.00;99.90
25582;DHT22;13462;50.764;4.332;2023-01-13T03:22:11;9.00;99.90
25582;DHT22;13462;50.764;4.332;2023-01-13T03:24:16;9.00;99.90
25582;DHT22;13462;50.764;4.332;2023-01-13T03:31:52;9.10;99.90
25582;DHT22;13462;50.764;4.332;2023-01-13T03:34:20;9.10;99.90
25582;DHT22;13462;50.764;4.332;2023-01-13T03:36:48;9.10;99.90
25582;DHT22;13462;50.764;4.332;2023-01-13T03:39:16;9.00;99.90
25582;DHT22;13462;50.764;4.332;2023-01-13T03:41:51;9.00;99.90
25582;DHT22;13462;50.764;4.332;2023-01-13T03:49:26;8.80;99.90
25582;DHT22;13462;50.764;4.332;2023-01-13T03:51:57;8.80;99.90
25582;DHT22;13462;50.764;4.332;2023-01-13T03:54:23;8.80;99.90
25582;DHT22;13462;50.764;4.332;2023-01-13T03:56:55;8.80;99.90
25582;DHT22;13462;50.764;4.332;2023-01-13T03:59:23;8.80;99.90
25582;DHT22;13462;50.764;4.332;2023-01-13T04:01:51;8.80;99.90
25582;DHT22;13462;50.764;4.332;2023-01-13T04:04:30;8.80;99.90
25582;DHT22;13462;50.764;4.332;2023-01-13T04:07:00;8.90;99.90
25582;DHT22;13462;50.764;4.332;2023-01-13T04:09:32;8.90;99.90
25582;DHT22;13462;50.764;4.332;2023-01-13T04:12:06;8.90;99.90
25582;DHT22;13462;50.764;4.332;2023-01-13T04:14:33;8.90;99.90
25582;DHT22;13462;50.764;4.332;2023-01-13T04:16:59;8.90;99.90
25582;DHT22;13462;50.764;4.332;2023-01-13T04:19:24;8.90;99.90
25582;DHT22;13462;50.764;4.332;2023-01-13T04:21:50;8.90;99.90
25582;DHT22;13462;50.764;4.332;2023-01-13T04:24:15;8.90;99.90
25582;DHT22;13462;50.764;4.332;2023-01-13T04:26:41;8.90;99.90
25582;DHT22;13462;50.764;4.332;2023-01-13T04:29:06;8.90;99.90
25582;DHT22;13462;50.764;4.332;2023-01-13T04:31:32;8.90;99.90
25582;DHT22;13462;50.764;4.332;2023-01-13T04:33:57;8.90;99.90
25582;DHT22;13462;50.764;4.332;2023-01-13T04:36:23;8.90;99.90
25582;DHT22;13462;50.764;4.332;2023-01-13T04:38:54;8.90;99.90
25582;DHT22;13462;50.764;4.332;2023-01-13T04:41:20;8.90;99.90
25582;DHT22;13462;50.764;4.332;2023-01-13T04:43:45;9.00;99.90
25582;DHT22;13462;50.764;4.332;2023-01-13T04:46:10;8.90;99.90
25582;DHT22;13462;50.764;4.332;2023-01-13T04:48:36;8.80;99.90
25582;DHT22;13462;50.764;4.332;2023-01-13T04:51:01;8.80;99.90
25582;DHT22;13462;50.764;4.332;2023-01-13T04:53:27;8.80;99.90
25582;DHT22;13462;50.764;4.332;2023-01-13T04:55:52;8.70;99.90
25582;DHT22;13462;50.764;4.332;2023-01-13T04:58:18;8.70;99.90
25582;DHT22;13462;50.764;4.332;2023-01-13T05:00:43;8.60;99.90
25582;DHT22;13462;50.764;4.332;2023-01-13T05:03:09;8.60;99.90
25582;DHT22;13462;50.764;4.332;2023-01-13T05:05:34;8.50;99.90
25582;DHT22;13462;50.764;4.332;2023-01-13T05:08:00;8.40;99.90
25582;DHT22;13462;50.764;4.332;2023-01-13T05:10:25;8.40;99.90
25582;DHT22;13462;50.764;4.332;2023-01-13T05:12:51;8.30;99.90
25582;DHT22;13462;50.764;4.332;2023-01-13T05:15:35;8.20;99.90
25582;DHT22;13462;50.764;4.332;2023-01-13T05:18:19;8.20;99.90
25582;DHT22;13462;50.764;4.332;2023-01-13T05:20:45;8.10;99.90
25582;DHT22;13462;50.764;4.332;2023-01-13T05:23:11;8.00;99.90
25582;DHT22;13462;50.764;4.332;2023-01-13T05:25:55;8.00;99.90
25582;DHT22;13462;50.764;4.332;2023-01-13T05:28:20;8.00;99.90
25582;DHT22;13462;50.764;4.332;2023-01-13T05:30:46;8.00;99.90
25582;DHT22;13462;50.764;4.332;2023-01-13T05:33:16;8.00;99.90
25582;DHT22;13462;50.764;4.332;2023-01-13T05:35:43;7.90;99.90
25582;DHT22;13462;50.764;4.332;2023-01-13T05:38:09;7.90;99.90
25582;DHT22;13462;50.764;4.332;2023-01-13T05:40:36;7.90;99.90
25582;DHT22;13462;50.764;4.332;2023-01-13T05:43:20;8.00;99.90
25582;DHT22;13462;50.764;4.332;2023-01-13T05:48:12;7.90;99.90
25582;DHT22;13462;50.764;4.332;2023-01-13T05:50:37;7.90;99.90
25582;DHT22;13462;50.764;4.332;2023-01-13T05:53:03;8.00;99.90
25582;DHT22;13462;50.764;4.332;2023-01-13T05:55:28;8.00;99.90
25582;DHT22;13462;50.764;4.332;2023-01-13T05:57:54;8.00;99.90
25582;DHT22;13462;50.764;4.332;2023-01-13T06:00:19;8.10;99.90
25582;DHT22;13462;50.764;4.332;2023-01-13T06:02:45;8.10;99.90
25582;DHT22;13462;50.764;4.332;2023-01-13T06:05:11;8.10;99.90
25582;DHT22;13462;50.764;4.332;2023-01-13T06:07:36;8.10;99.90
25582;DHT22;13462;50.764;4.332;2023-01-13T06:10:01;8.10;99.90
25582;DHT22;13462;50.764;4.332;2023-01-13T06:12:27;8.10;99.90
25582;DHT22;13462;50.764;4.332;2023-01-13T06:14:52;8.00;99.90
25582;DHT22;13462;50.764;4.332;2023-01-13T06:17:21;8.00;99.90
25582;DHT22;13462;50.764;4.332;2023-01-13T06:19:47;8.00;99.90
25582;DHT22;13462;50.764;4.332;2023-01-13T06:22:14;7.90;99.90
25582;DHT22;13462;50.764;4.332;2023-01-13T06:24:40;8.00;99.90
25582;DHT22;13462;50.764;4.332;2023-01-13T06:27:06;7.90;99.90
25582;DHT22;13462;50.764;4.332;2023-01-13T06:29:32;7.90;99.90
25582;DHT22;13462;50.764;4.332;2023-01-13T06:31:58;8.00;99.90
25582;DHT22;13462;50.764;4.332;2023-01-13T06:34:25;8.00;99.90
25582;DHT22;13462;50.764;4.332;2023-01-13T06:36:51;8.00;99.90
25582;DHT22;13462;50.764;4.332;2023-01-13T06:39:19;8.00;99.90
25582;DHT22;13462;50.764;4.332;2023-01-13T06:41:46;8.00;99.90
25582;DHT22;13462;50.764;4.332;2023-01-13T06:44:31;7.90;99.90
25582;DHT22;13462;50.764;4.332;2023-01-13T06:46:56;7.90;99.90
25582;DHT22;13462;50.764;4.332;2023-01-13T06:49:22;7.90;99.90
25582;DHT22;13462;50.764;4.332;2023-01-13T06:51:47;7.90;99.90
25582;DHT22;13462;50.764;4.332;2023-01-13T06:54:13;7.90;99.90
25582;DHT22;13462;50.764;4.332;2023-01-13T06:56:38;7.90;99.90
25582;DHT22;13462;50.764;4.332;2023-01-13T06:59:04;7.90;99.90
25582;DHT22;13462;50.764;4.332;2023-01-13T07:01:29;7.90;99.90
25582;DHT22;13462;50.764;4.332;2023-01-13T07:03:55;7.90;99.90
25582;DHT22;13462;50.764;4.332;2023-01-13T07:06:20;7.90;99.90
25582;DHT22;13462;50.764;4.332;2023-01-13T07:08:46;7.90;99.90
25582;DHT22;13462;50.764;4.332;2023-01-13T07:11:11;7.80;99.90
25582;DHT22;13462;50.764;4.332;2023-01-13T07:13:36;7.80;99.90
25582;DHT22;13462;50.764;4.332;2023-01-13T07:16:20;7.90;99.90
25582;DHT22;13462;50.764;4.332;2023-01-13T07:18:48;7.80;99.90
25582;DHT22;13462;50.764;4.332;2023-01-13T07:21:14;7.70;99.90
25582;DHT22;13462;50.764;4.332;2023-01-13T07:23:43;7.70;99.90
25582;DHT22;13462;50.764;4.332;2023-01-13T07:26:08;7.70;99.90
25582;DHT22;13462;50.764;4.332;2023-01-13T07:28:35;7.70;99.90
25582;DHT22;13462;50.764;4.332;2023-01-13T07:31:00;7.70;99.90
25582;DHT22;13462;50.764;4.332;2023-01-13T07:33:26;7.70;99.90
25582;DHT22;13462;50.764;4.332;2023-01-13T07:35:55;7.70;99.90
25582;DHT22;13462;50.764;4.332;2023-01-13T07:38:21;7.70;99.90
25582;DHT22;13462;50.764;4.332;2023-01-13T07:40:47;7.70;99.90
25582;DHT22;13462;50.764;4.332;2023-01-13T07:43:12;7.70;99.90
25582;DHT22;13462;50.764;4.332;2023-01-13T07:45:56;7.70;99.90
25582;DHT22;13462;50.764;4.332;2023-01-13T07:48:25;7.80;99.90
25582;DHT22;13462;50.764;4.332;2023-01-13T07:50:51;7.70;99.90
25582;DHT22;13462;50.764;4.332;2023-01-13T07:53:16;7.80;99.90
25582;DHT22;13462;50.764;4.332;2023-01-13T07:55:42;7.80;99.90
25582;DHT22;13462;50.764;4.332;2023-01-13T07:58:08;7.80;99.90
25582;DHT22;13462;50.764;4.332;2023-01-13T08:00:34;7.90;99.90
25582;DHT22;13462;50.764;4.332;2023-01-13T08:02:59;7.90;99.90
25582;DHT22;13462;50.764;4.332;2023-01-13T08:05:25;7.90;99.90
25582;DHT22;13462;50.764;4.332;2023-01-13T08:07:50;8.00;99.90
25582;DHT22;13462;50.764;4.332;2023-01-13T08:10:16;8.00;99.90
25582;DHT22;13462;50.764;4.332;2023-01-13T08:12:41;8.00;99.90
25582;DHT22;13462;50.764;4.332;2023-01-13T08:15:25;8.00;99.90
25582;DHT22;13462;50.764;4.332;2023-01-13T08:17:51;8.10;99.90
25582;DHT22;13462;50.764;4.332;2023-01-13T08:20:16;8.20;99.90
25582;DHT22;13462;50.764;4.332;2023-01-13T08:22:42;8.10;99.90
25582;DHT22;13462;50.764;4.332;2023-01-13T08:25:08;8.10;99.90
25582;DHT22;13462;50.764;4.332;2023-01-13T08:27:33;8.10;99.90
25582;DHT22;13462;50.764;4.332;2023-01-13T08:29:59;8.00;99.90
25582;DHT22;13462;50.764;4.332;2023-01-13T08:32:25;8.00;99.90
25582;DHT22;13462;50.764;4.332;2023-01-13T08:34:50;8.10;99.90
25582;DHT22;13462;50.764;4.332;2023-01-13T08:37:15;8.10;99.90
25582;DHT22;13462;50.764;4.332;2023-01-13T08:39:41;8.10;99.90
25582;DHT22;13462;50.764;4.332;2023-01-13T08:42:06;8.30;99.90
25582;DHT22;13462;50.764;4.332;2023-01-13T08:44:32;8.50;99.90
25582;DHT22;13462;50.764;4.332;2023-01-13T08:46:57;8.60;99.90
25582;DHT22;13462;50.764;4.332;2023-01-13T08:49:23;8.80;99.90
25582;DHT22;13462;50.764;4.332;2023-01-13T08:51:49;8.90;99.90
25582;DHT22;13462;50.764;4.332;2023-01-13T08:54:15;8.90;99.90
25582;DHT22;13462;50.764;4.332;2023-01-13T08:56:41;8.80;99.90
25582;DHT22;13462;50.764;4.332;2023-01-13T08:59:13;8.80;99.90
25582;DHT22;13462;50.764;4.332;2023-01-13T09:01:39;8.90;99.90
25582;DHT22;13462;50.764;4.332;2023-01-13T09:04:26;9.00;99.90
25582;DHT22;13462;50.764;4.332;2023-01-13T09:06:51;8.90;99.90
25582;DHT22;13462;50.764;4.332;2023-01-13T09:09:17;9.10;99.90
25582;DHT22;13462;50.764;4.332;2023-01-13T09:11:44;9.20;99.90
25582;DHT22;13462;50.764;4.332;2023-01-13T09:14:30;9.30;99.90
25582;DHT22;13462;50.764;4.332;2023-01-13T09:16:56;9.30;99.90
25582;DHT22;13462;50.764;4.332;2023-01-13T09:19:22;9.70;99.90
25582;DHT22;13462;50.764;4.332;2023-01-13T09:21:47;10.30;99.90
25582;DHT22;13462;50.764;4.332;2023-01-13T09:24:13;10.90;99.90
25582;DHT22;13462;50.764;4.332;2023-01-13T09:26:38;10.70;99.90
25582;DHT22;13462;50.764;4.332;2023-01-13T09:29:04;10.50;99.90
25582;DHT22;13462;50.764;4.332;2023-01-13T09:31:30;10.70;99.90
25582;DHT22;13462;50.764;4.332;2023-01-13T09:34:01;11.00;99.90
25582;DHT22;13462;50.764;4.332;2023-01-13T09:37:00;11.50;99.90
25582;DHT22;13462;50.764;4.332;2023-01-13T09:39:25;11.90;99.90
25582;DHT22;13462;50.764;4.332;2023-01-13T09:41:55;12.10;99.90
25582;DHT22;13462;50.764;4.332;2023-01-13T09:45:00;12.00;99.90
25582;DHT22;13462;50.764;4.332;2023-01-13T09:50:00;12.40;99.90
25582;DHT22;13462;50.764;4.332;2023-01-13T09:52:27;13.00;99.90
25582;DHT22;13462;50.764;4.332;2023-01-13T09:57:24;12.50;99.90
25582;DHT22;13462;50.764;4.332;2023-01-13T09:59:51;11.80;99.90
25582;DHT22;13462;50.764;4.332;2023-01-13T10:05:04;10.70;99.90
25582;DHT22;13462;50.764;4.332;2023-01-13T10:07:30;10.60;99.90
25582;DHT22;13462;50.764;4.332;2023-01-13T10:09:57;10.60;99.90
25582;DHT22;13462;50.764;4.332;2023-01-13T10:12:24;10.30;99.90
25582;DHT22;13462;50.764;4.332;2023-01-13T10:15:12;10.10;99.90
25582;DHT22;13462;50.764;4.332;2023-01-13T10:17:40;9.80;99.90
25582;DHT22;13462;50.764;4.332;2023-01-13T10:22:49;9.50;99.90
25582;DHT22;13462;50.764;4.332;2023-01-13T10:25:23;9.40;99.90
25582;DHT22;13462;50.764;4.332;2023-01-13T10:27:52;9.40;99.90
25582;DHT22;13462;50.764;4.332;2023-01-13T10:30:31;9.60;99.90
25582;DHT22;13462;50.764;4.332;2023-01-13T10:33:40;10.00;99.90
25582;DHT22;13462;50.764;4.332;2023-01-13T10:36:03;11.40;99.90
25582;DHT22;13462;50.764;4.332;2023-01-13T10:38:37;11.90;99.90
25582;DHT22;13462;50.764;4.332;2023-01-13T10:41:04;11.30;99.90
25582;DHT22;13462;50.764;4.332;2023-01-13T10:43:30;11.00;99.90
25582;DHT22;13462;50.764;4.332;2023-01-13T10:48:23;10.60;99.90
25582;DHT22;13462;50.764;4.332;2023-01-13T10:50:55;10.30;99.90
25582;DHT22;13462;50.764;4.332;2023-01-13T10:53:22;10.20;99.90
25582;DHT22;13462;50.764;4.332;2023-01-13T10:55:58;10.00;99.90
25582;DHT22;13462;50.764;4.332;2023-01-13T10:58:24;9.90;99.90
25582;DHT22;13462;50.764;4.332;2023-01-13T11:00:52;9.80;99.90
25582;DHT22;13462;50.764;4.332;2023-01-13T11:03:22;9.80;99.90
25582;DHT22;13462;50.764;4.332;2023-01-13T11:05:55;9.80;99.90
25582;DHT22;13462;50.764;4.332;2023-01-13T11:08:25;9.70;99.90
25582;DHT22;13462;50.764;4.332;2023-01-13T11:10:52;9.60;99.90
25582;DHT22;13462;50.764;4.332;2023-01-13T11:13:26;9.50;99.90
25582;DHT22;13462;50.764;4.332;2023-01-13T11:21:09;9.30;99.90
25582;DHT22;13462;50.764;4.332;2023-01-13T11:23:38;9.30;99.90
25582;DHT22;13462;50.764;4.332;2023-01-13T11:26:09;9.30;99.90
25582;DHT22;13462;50.764;4.332;2023-01-13T11:28:41;9.30;99.90
25582;DHT22;13462;50.764;4.332;2023-01-13T11:31:28;9.30;99.90
25582;DHT22;13462;50.764;4.332;2023-01-13T11:34:17;9.40;99.90
25582;DHT22;13462;50.764;4.332;2023-01-13T11:36:45;9.40;99.90
25582;DHT22;13462;50.764;4.332;2023-01-13T11:42:02;9.50;99.90
25582;DHT22;13462;50.764;4.332;2023-01-13T11:45:05;9.60;99.90
25582;DHT22;13462;50.764;4.332;2023-01-13T11:47:35;9.60;99.90
25582;DHT22;13462;50.764;4.332;2023-01-13T11:50:01;9.60;99.90
25582;DHT22;13462;50.764;4.332;2023-01-13T11:54:55;9.70;99.90
25582;DHT22;13462;50.764;4.332;2023-01-13T12:10:11;9.80;99.90
25582;DHT22;13462;50.764;4.332;2023-01-13T12:12:41;9.70;99.90
25582;DHT22;13462;50.764;4.332;2023-01-13T12:23:33;9.80;99.90
25582;DHT22;13462;50.764;4.332;2023-01-13T12:26:09;9.70;99.90
25582;DHT22;13462;50.764;4.332;2023-01-13T12:31:09;9.90;99.90
25582;DHT22;13462;50.764;4.332;2023-01-13T12:33:41;9.90;99.90
25582;DHT22;13462;50.764;4.332;2023-01-13T12:38:51;9.90;99.90
25582;DHT22;13462;50.764;4.332;2023-01-13T12:43:48;9.90;99.90
25582;DHT22;13462;50.764;4.332;2023-01-13T12:46:33;10.00;99.90
25582;DHT22;13462;50.764;4.332;2023-01-13T12:51:33;10.00;99.90
25582;DHT22;13462;50.764;4.332;2023-01-13T12:54:00;10.00;99.90
25582;DHT22;13462;50.764;4.332;2023-01-13T12:56:39;10.10;99.90
25582;DHT22;13462;50.764;4.332;2023-01-13T13:01:49;10.00;99.90
25582;DHT22;13462;50.764;4.332;2023-01-13T13:04:19;10.10;99.90
25582;DHT22;13462;50.764;4.332;2023-01-13T13:06:52;10.10;99.90
25582;DHT22;13462;50.764;4.332;2023-01-13T13:09:30;10.20;99.90
25582;DHT22;13462;50.764;4.332;2023-01-13T13:11:57;10.20;99.90
25582;DHT22;13462;50.764;4.332;2023-01-13T13:15:23;10.20;99.90
25582;DHT22;13462;50.764;4.332;2023-01-13T13:19:56;10.10;99.90
25582;DHT22;13462;50.764;4.332;2023-01-13T13:29:46;10.30;99.90
25582;DHT22;13462;50.764;4.332;2023-01-13T13:40:23;10.30;99.90
25582;DHT22;13462;50.764;4.332;2023-01-13T13:43:10;10.30;99.90
25582;DHT22;13462;50.764;4.332;2023-01-13T13:45:55;10.20;99.90
25582;DHT22;13462;50.764;4.332;2023-01-13T13:48:42;10.20;99.90
25582;DHT22;13462;50.764;4.332;2023-01-13T13:51:27;10.30;99.90
25582;DHT22;13462;50.764;4.332;2023-01-13T13:53:54;10.30;99.90
25582;DHT22;13462;50.764;4.332;2023-01-13T13:56:25;10.30;99.90
25582;DHT22;13462;50.764;4.332;2023-01-13T13:58:51;10.50;99.90
25582;DHT22;13462;50.764;4.332;2023-01-13T14:03:46;10.60;99.90
25582;DHT22;13462;50.764;4.332;2023-01-13T14:06:15;10.70;99.90
25582;DHT22;13462;50.764;4.332;2023-01-13T14:08:45;10.70;99.90
25582;DHT22;13462;50.764;4.332;2023-01-13T14:11:29;10.70;99.90
25582;DHT22;13462;50.764;4.332;2023-01-13T14:14:03;10.70;99.90
25582;DHT22;13462;50.764;4.332;2023-01-13T14:16:30;10.60;99.90
25582;DHT22;13462;50.764;4.332;2023-01-13T14:18:55;10.50;99.90
25582;DHT22;13462;50.764;4.332;2023-01-13T14:23:50;10.40;99.90
25582;DHT22;13462;50.764;4.332;2023-01-13T14:26:16;10.40;99.90
25582;DHT22;13462;50.764;4.332;2023-01-13T14:28:42;10.70;99.90
25582;DHT22;13462;50.764;4.332;2023-01-13T14:31:08;11.10;99.90
25582;DHT22;13462;50.764;4.332;2023-01-13T14:33:41;11.20;99.90
25582;DHT22;13462;50.764;4.332;2023-01-13T14:36:20;10.90;99.90
25582;DHT22;13462;50.764;4.332;2023-01-13T14:38:48;10.80;99.90
25582;DHT22;13462;50.764;4.332;2023-01-13T14:41:18;10.60;99.90
25582;DHT22;13462;50.764;4.332;2023-01-13T14:43:44;10.60;99.90
25582;DHT22;13462;50.764;4.332;2023-01-13T14:46:10;10.50;99.90
25582;DHT22;13462;50.764;4.332;2023-01-13T14:48:36;10.60;99.90
25582;DHT22;13462;50.764;4.332;2023-01-13T14:51:02;10.60;99.90
25582;DHT22;13462;50.764;4.332;2023-01-13T14:58:45;10.40;99.90
25582;DHT22;13462;50.764;4.332;2023-01-13T15:01:32;10.30;99.90
25582;DHT22;13462;50.764;4.332;2023-01-13T15:04:20;10.30;99.90
25582;DHT22;13462;50.764;4.332;2023-01-13T15:06:48;10.10;99.90
25582;DHT22;13462;50.764;4.332;2023-01-13T15:09:19;10.20;99.90
25582;DHT22;13462;50.764;4.332;2023-01-13T15:11:47;10.20;99.90
25582;DHT22;13462;50.764;4.332;2023-01-13T15:14:14;10.30;99.90
25582;DHT22;13462;50.764;4.332;2023-01-13T15:16:47;10.30;99.90
25582;DHT22;13462;50.764;4.332;2023-01-13T15:19:12;10.30;99.90
25582;DHT22;13462;50.764;4.332;2023-01-13T15:21:38;10.30;99.90
25582;DHT22;13462;50.764;4.332;2023-01-13T15:24:04;10.20;99.90
25582;DHT22;13462;50.764;4.332;2023-01-13T15:26:31;10.20;99.90
25582;DHT22;13462;50.764;4.332;2023-01-13T15:28:57;10.10;99.90
25582;DHT22;13462;50.764;4.332;2023-01-13T15:31:23;10.10;99.90
25582;DHT22;13462;50.764;4.332;2023-01-13T15:33:49;10.10;99.90
25582;DHT22;13462;50.764;4.332;2023-01-13T15:36:19;10.00;99.90
25582;DHT22;13462;50.764;4.332;2023-01-13T15:38:45;9.90;99.90
25582;DHT22;13462;50.764;4.332;2023-01-13T15:41:11;9.90;99.90
25582;DHT22;13462;50.764;4.332;2023-01-13T15:43:36;9.80;99.90
25582;DHT22;13462;50.764;4.332;2023-01-13T15:46:21;9.80;99.90
25582;DHT22;13462;50.764;4.332;2023-01-13T15:49:14;9.80;99.90
25582;DHT22;13462;50.764;4.332;2023-01-13T15:51:41;9.80;99.90
25582;DHT22;13462;50.764;4.332;2023-01-13T15:54:06;9.80;99.90
25582;DHT22;13462;50.764;4.332;2023-01-13T15:56:32;9.80;99.90
25582;DHT22;13462;50.764;4.332;2023-01-13T15:59:00;9.80;99.90
25582;DHT22;13462;50.764;4.332;2023-01-13T16:01:26;9.80;99.90
25582;DHT22;13462;50.764;4.332;2023-01-13T16:03:51;9.70;99.90
25582;DHT22;13462;50.764;4.332;2023-01-13T16:06:18;9.70;99.90
25582;DHT22;13462;50.764;4.332;2023-01-13T16:08:43;9.70;99.90
25582;DHT22;13462;50.764;4.332;2023-01-13T16:11:10;9.70;99.90
25582;DHT22;13462;50.764;4.332;2023-01-13T16:13:35;9.60;99.90
25582;DHT22;13462;50.764;4.332;2023-01-13T16:16:01;9.60;99.90
25582;DHT22;13462;50.764;4.332;2023-01-13T16:18:27;9.50;99.90
25582;DHT22;13462;50.764;4.332;2023-01-13T16:20:52;9.50;99.90
25582;DHT22;13462;50.764;4.332;2023-01-13T16:23:22;9.40;99.90
25582;DHT22;13462;50.764;4.332;2023-01-13T16:25:48;9.30;99.90
25582;DHT22;13462;50.764;4.332;2023-01-13T16:28:20;9.20;99.90
25582;DHT22;13462;50.764;4.332;2023-01-13T16:30:46;9.10;99.90
25582;DHT22;13462;50.764;4.332;2023-01-13T16:33:11;9.00;99.90
25582;DHT22;13462;50.764;4.332;2023-01-13T16:35:37;9.00;99.90
25582;DHT22;13462;50.764;4.332;2023-01-13T16:38:02;9.00;99.90
25582;DHT22;13462;50.764;4.332;2023-01-13T16:40:29;8.90;99.90
25582;DHT22;13462;50.764;4.332;2023-01-13T16:42:55;8.80;99.90
25582;DHT22;13462;50.764;4.332;2023-01-13T16:45:21;8.80;99.90
25582;DHT22;13462;50.764;4.332;2023-01-13T16:47:47;8.80;99.90
25582;DHT22;13462;50.764;4.332;2023-01-13T16:52:57;8.70;99.90
25582;DHT22;13462;50.764;4.332;2023-01-13T16:55:22;8.70;99.90
25582;DHT22;13462;50.764;4.332;2023-01-13T16:57:49;8.80;99.90
25582;DHT22;13462;50.764;4.332;2023-01-13T17:00:15;8.70;99.90
25582;DHT22;13462;50.764;4.332;2023-01-13T17:02:40;8.70;99.90
25582;DHT22;13462;50.764;4.332;2023-01-13T17:05:09;8.70;99.90
25582;DHT22;13462;50.764;4.332;2023-01-13T17:07:35;8.70;99.90
25582;DHT22;13462;50.764;4.332;2023-01-13T17:10:01;8.60;99.90
25582;DHT22;13462;50.764;4.332;2023-01-13T17:12:26;8.60;99.90
25582;DHT22;13462;50.764;4.332;2023-01-13T17:14:51;8.60;99.90
25582;DHT22;13462;50.764;4.332;2023-01-13T17:17:21;8.60;99.90
25582;DHT22;13462;50.764;4.332;2023-01-13T17:19:47;8.50;99.90
25582;DHT22;13462;50.764;4.332;2023-01-13T17:22:13;8.50;99.90
25582;DHT22;13462;50.764;4.332;2023-01-13T17:24:38;8.50;99.90
25582;DHT22;13462;50.764;4.332;2023-01-13T17:27:04;8.40;99.90
25582;DHT22;13462;50.764;4.332;2023-01-13T17:29:29;8.50;99.90
25582;DHT22;13462;50.764;4.332;2023-01-13T17:31:57;8.50;99.90
25582;DHT22;13462;50.764;4.332;2023-01-13T17:34:22;8.60;99.90
25582;DHT22;13462;50.764;4.332;2023-01-13T17:36:48;8.60;99.90
25582;DHT22;13462;50.764;4.332;2023-01-13T17:39:14;8.70;99.90
25582;DHT22;13462;50.764;4.332;2023-01-13T17:41:40;8.70;99.90
25582;DHT22;13462;50.764;4.332;2023-01-13T17:44:05;8.80;99.90
25582;DHT22;13462;50.764;4.332;2023-01-13T17:46:30;8.80;99.90
25582;DHT22;13462;50.764;4.332;2023-01-13T17:48:56;8.80;99.90
25582;DHT22;13462;50.764;4.332;2023-01-13T17:51:21;8.80;99.90
25582;DHT22;13462;50.764;4.332;2023-01-13T17:53:49;8.90;99.90
25582;DHT22;13462;50.764;4.332;2023-01-13T17:56:15;8.80;99.90
25582;DHT22;13462;50.764;4.332;2023-01-13T17:58:41;8.80;99.90
25582;DHT22;13462;50.764;4.332;2023-01-13T18:01:07;8.80;99.90